Time;durP1;ratioP1;P1;durP2;ratioP2;P2;SDS_P1;SDS_P2;PMS_P1;PMS_P2;Temp;Humidity;BMP_temperature;BMP_pressure;BME280_temperature;BME280_humidity;BME280_pressure;Samples;Min_cycle;Max_cycle;Signal;HPM_P1;HPM_P2
2022/02/10 00:14:36;;;;;;;;;14.25;12.25;;;;;3.48;85.18;101773.94;6308396;22;11483;-72
2022/02/10 00:20:34;;;;;;;;;11.00;9.50;;;;;3.50;85.62;101766.28;6307256;22;11514;-72
2022/02/10 00:24:03;;;;;;;;;8.25;8.25;;;;;3.50;85.49;101765.47;6304630;22;11447;-72
2022/02/10 00:40:09;;;;;;;;;6.50;6.50;;;;;3.20;85.90;101747.63;6307720;22;11554;-72
2022/02/10 00:43:06;;;;;;;;;11.75;11.75;;;;;3.26;85.83;101745.78;6306613;22;12275;-72
2022/02/10 00:46:01;;;;;;;;;11.25;10.50;;;;;3.13;85.68;101757.09;6306944;22;11458;-72
2022/02/10 00:49:04;;;;;;;;;6.75;6.75;;;;;3.16;86.30;101762.09;6307036;22;11528;-71
2022/02/10 00:52:05;;;;;;;;;5.00;5.00;;;;;3.20;85.73;101764.03;6306917;22;11437;-72
2022/02/10 00:55:01;;;;;;;;;8.00;8.00;;;;;3.20;86.21;101749.53;6306527;22;11440;-72
2022/02/10 00:57:59;;;;;;;;;11.00;11.00;;;;;3.11;86.84;101753.81;6307464;22;11533;-71
2022/02/10 01:10:27;;;;;;;;;10.00;10.00;;;;;2.86;86.82;101741.50;6307721;22;11435;-72
2022/02/10 01:13:48;;;;;;;;;10.00;10.00;;;;;2.73;87.63;101758.25;6307644;22;11537;-72
2022/02/10 01:29:57;;;;;;;;;12.25;11.50;;;;;2.38;88.17;101783.16;6306542;22;11450;-72
2022/02/10 01:32:56;;;;;;;;;14.00;14.00;;;;;2.39;87.95;101782.91;6323729;22;11562;-73
2022/02/10 01:35:51;;;;;;;;;9.50;9.50;;;;;2.08;88.80;101781.59;6306926;22;11476;-72
2022/02/10 01:38:47;;;;;;;;;21.75;15.75;;;;;1.99;88.99;101763.94;6306714;22;11431;-73
2022/02/10 01:58:13;;;;;;;;;7.75;7.00;;;;;1.59;89.68;101770.34;6306584;22;11504;-72
2022/02/10 02:04:25;;;;;;;;;18.50;17.75;;;;;1.46;90.54;101784.28;6306179;22;11527;-72
2022/02/10 02:07:28;;;;;;;;;15.75;15.75;;;;;1.49;91.25;101781.06;6308143;22;11593;-72
2022/02/10 02:10:23;;;;;;;;;11.00;9.75;;;;;1.45;90.94;101776.34;6325866;22;11504;-72
2022/02/10 02:13:19;;;;;;;;;12.50;12.50;;;;;1.41;90.60;101772.47;6308275;22;12139;-72
2022/02/10 02:16:15;;;;;;;;;19.00;19.00;;;;;1.30;90.92;101782.31;6310005;22;11481;-72
2022/02/10 02:19:10;;;;;;;;;16.50;16.50;;;;;1.24;91.94;101786.03;6308294;22;11593;-72
2022/02/10 02:22:08;;;;;;;;;10.00;10.00;;;;;1.27;90.91;101780.09;6308116;22;11495;-73
2022/02/10 02:25:04;;;;;;;;;13.50;13.50;;;;;1.11;90.73;101779.78;6308502;22;11488;-72
2022/02/10 02:28:03;;;;;;;;;19.25;16.25;;;;;1.00;91.96;101782.53;6308491;22;11560;-72
2022/02/10 02:31:07;;;;;;;;;16.50;16.50;;;;;0.98;92.38;101787.38;6308197;22;11476;-71
2022/02/10 03:06:45;;;;;;;;;25.00;23.33;;;;;0.73;94.77;101782.22;6308951;22;12286;-72
2022/02/10 03:09:53;;;;;;;;;24.33;23.00;;;;;0.59;94.73;101775.38;6307645;22;8788;-71
2022/02/10 03:12:49;;;;;;;;;16.00;16.00;;;;;0.63;95.39;101779.28;6308731;22;11533;-72
2022/02/10 04:01:13;;;;;;;;;28.33;26.00;;;;;0.57;95.58;101810.19;6307522;22;8810;-72
2022/02/10 04:04:04;;;;;;;;;25.67;23.67;;;;;0.60;95.72;101817.84;6307351;22;8881;-72
2022/02/10 04:10:41;;;;;;;;;26.00;26.00;;;;;0.46;95.25;101809.09;6307264;22;11533;-71
2022/02/10 04:16:39;;;;;;;;;29.67;29.67;;;;;0.57;95.25;101811.00;6307479;22;11501;-72
2022/02/10 04:23:12;;;;;;;;;35.00;32.67;;;;;0.60;95.95;101812.41;6307118;22;8787;-72
2022/02/10 04:26:18;;;;;;;;;32.33;31.33;;;;;0.48;94.54;101817.88;6306603;22;8864;-71
2022/02/10 04:32:40;;;;;;;;;7.33;7.33;;;;;0.38;94.38;101818.44;6307086;22;9624;-71
2022/02/10 04:55:26;;;;;;;;;43.33;37.67;;;;;0.26;96.33;101821.16;6306841;22;8795;-72
2022/02/10 05:08:07;;;;;;;;;31.33;30.67;;;;;0.37;96.42;101826.84;6306452;22;8787;-72
2022/02/10 05:20:31;;;;;;;;;32.33;31.33;;;;;0.58;96.00;101826.25;6306784;22;8797;-72
2022/02/10 05:23:54;;;;;;;;;27.33;27.33;;;;;0.55;95.91;101822.13;6307900;22;8788;-72
2022/02/10 05:33:29;;;;;;;;;23.00;23.00;;;;;0.99;96.19;101814.38;6306318;22;8791;-74
2022/02/10 05:36:29;;;;;;;;;28.00;28.00;;;;;0.96;96.26;101808.59;6305869;22;9477;-72
2022/02/10 05:39:26;;;;;;;;;34.00;34.00;;;;;1.04;95.80;101819.13;6306533;22;8795;-72
2022/02/10 05:42:48;;;;;;;;;30.33;30.33;;;;;1.02;96.59;101815.81;6306333;22;9462;-72
2022/02/10 05:45:46;;;;;;;;;35.33;35.33;;;;;1.17;96.05;101821.59;6306738;22;8814;-73
2022/02/10 06:41:30;;;;;;;;;21.00;21.00;;;;;2.64;89.92;101831.59;6304156;22;12191;-74
2022/02/10 06:50:39;;;;;;;;;25.75;22.25;;;;;2.60;89.13;101829.63;6283752;22;11515;-72
2022/02/10 06:53:03;;;;;;;;;28.25;25.00;;;;;2.69;88.98;101833.59;6305958;22;11488;-73
2022/02/10 06:56:23;;;;;;;;;25.00;25.00;;;;;2.77;88.88;101831.25;6306878;22;11565;-73
2022/02/10 07:50:06;;;;;;;;;48.25;44.00;;;;;3.84;84.73;101813.44;6306558;22;11533;-75
2022/02/10 08:00:20;;;;;;;;;57.75;48.50;;;;;4.00;82.64;101822.63;6306806;22;11509;-74
2022/02/10 08:52:42;;;;;;;;;16.75;16.75;;;;;3.99;80.06;101798.22;6305978;22;12326;-72
2022/02/10 08:54:56;;;;;;;;;15.75;15.75;;;;;4.13;80.44;101792.06;6305672;22;11668;-72
2022/02/10 09:20:21;;;;;;;;;14.50;14.50;;;;;4.18;81.04;101762.00;6306123;22;11572;-74
2022/02/10 10:04:51;;;;;;;;;14.75;14.75;;;;;6.90;93.08;101712.84;6306078;22;11420;-72
2022/02/10 10:11:54;;;;;;;;;7.00;7.00;;;;;5.90;77.88;101723.72;6306992;22;11409;-75
2022/02/10 10:15:07;;;;;;;;;12.00;11.25;;;;;4.55;80.38;101725.53;6305831;22;11424;-73
2022/02/10 10:24:52;;;;;;;;;18.00;16.75;;;;;3.84;84.70;101711.34;6305852;22;11471;-74
2022/02/10 10:44:48;;;;;;;;;10.75;8.50;;;;;3.87;85.32;101699.88;6308900;22;11504;-72
2022/02/10 10:51:08;;;;;;;;;18.00;18.00;;;;;3.54;86.99;101701.78;6307732;22;11463;-73
2022/02/10 10:57:30;;;;;;;;;9.25;9.25;;;;;3.72;87.56;101691.53;6282163;22;11475;-72
2022/02/10 11:00:45;;;;;;;;;12.00;10.75;;;;;3.71;87.28;101687.97;6307434;22;11508;-74
2022/02/10 11:25:01;;;;;;;;;15.00;15.00;;;;;4.14;87.37;101670.53;6306872;22;11481;-73
2022/02/10 11:36:32;;;;;;;;;16.75;14.00;;;;;4.35;89.93;101682.41;6307200;22;11485;-73
2022/02/10 11:39:46;;;;;;;;;16.25;16.25;;;;;4.40;89.59;101687.94;6304465;22;11475;-74
2022/02/10 11:43:01;;;;;;;;;22.50;22.50;;;;;4.42;90.16;101696.69;6306112;22;12181;-74
2022/02/10 14:21:18;;;;;;;;;48.75;43.25;;;;;6.88;91.39;101764.56;6307711;22;11605;-73
2022/02/10 14:27:28;;;;;;;;;35.75;35.50;;;;;6.86;91.95;101767.59;6307590;22;11549;-72
2022/02/10 14:30:24;;;;;;;;;45.25;42.00;;;;;6.88;91.59;101770.88;6307883;22;11490;-73
2022/02/10 14:33:29;;;;;;;;;52.75;44.50;;;;;6.84;91.99;101778.06;6308224;22;11540;-73
2022/02/10 14:36:42;;;;;;;;;43.50;40.00;;;;;6.83;92.21;101775.59;6308492;22;11494;-73
2022/02/10 14:39:54;;;;;;;;;51.00;43.50;;;;;6.86;92.20;101775.03;6307887;22;11510;-73
2022/02/10 15:53:55;;;;;;;;;41.75;38.25;;;;;6.41;96.68;101821.56;6306629;22;11551;-72
2022/02/10 15:57:02;;;;;;;;;33.75;30.00;;;;;6.45;96.61;101824.59;6307223;22;11526;-72
2022/02/10 16:19:13;;;;;;;;;32.00;31.50;;;;;6.51;96.10;101850.13;6307109;22;11525;-72
2022/02/10 16:22:23;;;;;;;;;32.00;28.75;;;;;6.35;95.85;101844.63;6306752;22;11507;-72
2022/02/10 16:25:20;;;;;;;;;32.50;32.00;;;;;6.45;95.85;101840.25;6304930;22;12265;-74
2022/02/10 16:28:25;;;;;;;;;34.50;34.50;;;;;6.40;95.82;101849.31;6306754;22;11595;-75
2022/02/10 16:31:23;;;;;;;;;38.25;35.50;;;;;6.36;95.31;101843.56;6306305;22;11499;-75
2022/02/10 16:34:20;;;;;;;;;31.00;29.00;;;;;6.32;95.63;101856.19;6306675;22;12343;-76
2022/02/10 16:36:54;;;;;;;;;36.00;34.00;;;;;6.22;95.73;101847.13;6316143;22;11513;-75
2022/02/10 16:39:50;;;;;;;;;39.75;39.00;;;;;6.27;95.98;101838.84;6306721;22;11703;-75
2022/02/10 16:42:31;;;;;;;;;33.25;33.25;;;;;6.23;95.92;101835.84;6306893;22;11510;-75
2022/02/10 16:44:59;;;;;;;;;31.25;31.25;;;;;6.26;95.16;101831.72;6305379;22;11554;-75
2022/02/10 16:47:36;;;;;;;;;40.75;37.75;;;;;6.26;95.45;101835.28;6315980;22;11593;-75
2022/02/10 16:50:31;;;;;;;;;38.75;37.00;;;;;6.27;95.25;101833.38;6306455;22;11627;-75
2022/02/10 16:53:28;;;;;;;;;41.25;39.50;;;;;6.17;95.17;101847.09;6306675;22;11521;-75
2022/02/10 16:56:33;;;;;;;;;43.00;40.75;;;;;6.10;95.59;101839.13;6305307;22;11548;-72
2022/02/10 16:59:25;;;;;;;;;42.25;39.75;;;;;6.02;95.64;101843.25;6306464;22;11464;-72
2022/02/10 17:02:45;;;;;;;;;47.33;40.33;;;;;6.00;95.67;101837.19;6315065;22;11558;-72
2022/02/10 17:05:16;;;;;;;;;43.25;40.00;;;;;5.92;96.15;101831.41;6305702;22;11554;-72
2022/02/10 17:27:42;;;;;;;;;47.75;43.75;;;;;6.03;95.08;101842.13;6315735;22;11499;-72
2022/02/10 17:37:08;;;;;;;;;58.00;48.25;;;;;5.77;96.23;101860.47;6305723;22;11521;-72
2022/02/10 17:43:42;;;;;;;;;52.75;46.50;;;;;6.04;95.24;101856.69;6305970;22;11526;-73
2022/02/10 17:52:18;;;;;;;;;61.25;50.25;;;;;5.89;95.54;101871.19;6308843;22;11509;-73
2022/02/10 17:54:47;;;;;;;;;55.75;47.75;;;;;5.81;96.01;101863.47;6311420;22;11531;-71
2022/02/10 17:57:19;;;;;;;;;65.00;51.25;;;;;5.94;95.11;101876.72;6311267;22;11498;-71
2022/02/10 17:59:46;;;;;;;;;65.25;53.00;;;;;5.85;95.82;101875.56;6306063;22;11536;-72
2022/02/10 18:02:19;;;;;;;;;59.25;49.75;;;;;5.89;95.62;101879.41;6313857;22;11593;-73
2022/02/10 18:04:46;;;;;;;;;62.25;53.00;;;;;5.87;95.92;101870.63;6315445;22;11484;-73
2022/02/10 18:07:14;;;;;;;;;65.50;51.00;;;;;5.97;95.57;101873.44;6307003;22;11533;-74
2022/02/10 18:15:18;;;;;;;;;47.75;43.25;;;;;5.97;95.23;101869.84;6315389;22;11622;-72
2022/02/10 18:17:53;;;;;;;;;53.25;46.50;;;;;5.94;95.28;101867.66;6315440;22;11513;-72
2022/02/10 18:20:27;;;;;;;;;54.50;46.50;;;;;5.84;96.05;101868.44;6314861;22;11558;-73
2022/02/10 18:23:37;;;;;;;;;35.00;35.00;;;;;5.78;96.32;101866.78;6305821;22;11512;-71
2022/02/10 19:06:56;;;;;;;;;57.75;46.75;;;;;5.69;98.96;101877.44;6307670;22;12258;-73
2022/02/10 19:09:26;;;;;;;;;42.25;39.75;;;;;5.59;99.19;101872.72;6308216;22;11527;-72
2022/02/10 19:12:27;;;;;;;;;49.75;41.75;;;;;5.54;99.61;101875.47;6307416;22;12275;-72
2022/02/10 19:15:13;;;;;;;;;51.75;44.50;;;;;5.49;99.81;101874.63;6341097;22;12285;-73
2022/02/10 19:17:42;;;;;;;;;46.75;41.50;;;;;5.74;99.79;101873.88;6316813;22;11531;-72
2022/02/10 19:20:11;;;;;;;;;48.25;42.00;;;;;5.64;98.42;101876.59;6306973;22;12304;-72
2022/02/10 19:22:41;;;;;;;;;49.75;42.50;;;;;5.51;98.92;101876.00;6316733;22;11491;-73
2022/02/10 19:25:12;;;;;;;;;52.25;46.25;;;;;5.43;99.66;101876.50;6308010;22;11545;-73
2022/02/10 19:27:55;;;;;;;;;44.00;42.00;;;;;5.23;100.00;101880.00;6311264;22;11568;-73
2022/02/10 19:30:25;;;;;;;;;55.00;47.25;;;;;5.23;100.00;101880.00;6315957;22;11592;-72
2022/02/10 19:33:07;;;;;;;;;38.50;38.00;;;;;5.26;100.00;101881.38;6316183;22;11645;-72
2022/02/10 19:35:51;;;;;;;;;50.00;45.00;;;;;5.13;100.00;101885.41;6311469;22;11507;-72
2022/02/10 19:38:22;;;;;;;;;47.75;41.50;;;;;5.20;100.00;101880.50;6316278;22;11518;-72
2022/02/10 19:40:52;;;;;;;;;36.50;36.00;;;;;5.24;100.00;101878.88;6317050;22;11594;-72
2022/02/10 19:43:48;;;;;;;;;49.75;43.25;;;;;5.18;100.00;101874.47;6324748;22;11540;-72
2022/02/10 19:46:16;;;;;;;;;44.25;41.75;;;;;5.14;100.00;101867.06;6316129;22;11574;-72
2022/02/10 19:49:22;;;;;;;;;50.25;43.75;;;;;5.23;100.00;101876.44;6306977;22;11534;-71
2022/02/10 19:52:06;;;;;;;;;34.25;34.25;;;;;5.27;100.00;101872.03;6307475;22;11498;-71
2022/02/10 19:55:02;;;;;;;;;44.25;40.75;;;;;5.48;100.00;101884.78;6306639;22;11529;-71
2022/02/10 19:58:04;;;;;;;;;38.25;38.25;;;;;5.45;100.00;101873.53;6308464;22;11559;-71
2022/02/10 20:00:38;;;;;;;;;45.50;40.50;;;;;5.36;100.00;101878.66;6315353;22;11526;-72
2022/02/10 20:03:38;;;;;;;;;46.75;42.00;;;;;5.43;100.00;101871.00;6307046;22;11539;-72
2022/02/10 20:06:33;;;;;;;;;47.75;42.75;;;;;5.49;99.92;101860.91;6307066;22;11603;-72
2022/02/10 20:09:29;;;;;;;;;56.50;44.25;;;;;5.54;99.61;101867.25;6306110;22;11513;-72
2022/02/10 20:12:10;;;;;;;;;53.00;43.50;;;;;5.66;99.15;101867.00;6282834;22;11537;-73
2022/02/10 20:14:54;;;;;;;;;53.50;46.00;;;;;5.58;98.85;101868.34;6307646;22;11538;-72
2022/02/10 20:17:22;;;;;;;;;49.25;43.25;;;;;5.61;98.82;101864.25;6316578;22;12186;-72
2022/02/10 20:20:18;;;;;;;;;53.50;44.50;;;;;5.66;98.37;101868.91;6307138;22;11517;-71
2022/02/10 20:23:15;;;;;;;;;51.25;45.00;;;;;5.74;97.83;101866.47;6307029;22;11515;-71
2022/02/10 20:26:11;;;;;;;;;54.75;46.75;;;;;5.76;97.46;101866.22;6307195;22;11640;-71
2022/02/10 20:29:10;;;;;;;;;48.25;41.75;;;;;5.61;98.30;101869.75;6307151;22;11488;-71
2022/02/10 20:32:07;;;;;;;;;41.50;39.50;;;;;5.63;97.65;101866.72;6307053;22;11529;-71
2022/02/10 20:34:35;;;;;;;;;41.00;38.50;;;;;5.65;97.55;101862.59;6316712;22;11526;-71
2022/02/10 20:37:31;;;;;;;;;43.00;41.25;;;;;5.76;96.83;101869.78;6306982;22;11563;-71
2022/02/10 20:40:08;;;;;;;;;41.50;39.75;;;;;5.76;96.92;101861.56;6315642;22;11529;-71
2022/02/10 20:43:06;;;;;;;;;41.25;39.00;;;;;5.61;96.92;101869.75;6304671;22;11506;-72
2022/02/10 20:46:05;;;;;;;;;40.25;36.25;;;;;5.72;97.13;101874.16;6307104;22;11656;-73
2022/02/10 20:49:02;;;;;;;;;40.25;39.00;;;;;5.77;96.43;101860.47;6307004;22;11510;-72
2022/02/10 20:51:58;;;;;;;;;40.25;35.00;;;;;5.65;97.28;101867.25;6306436;22;11534;-73
2022/02/10 20:54:26;;;;;;;;;32.25;32.00;;;;;5.72;96.92;101865.09;6305316;22;11597;-72
2022/02/10 20:57:08;;;;;;;;;34.00;32.50;;;;;5.64;97.00;101860.94;6307175;22;11533;-71
2022/02/10 20:59:40;;;;;;;;;41.25;38.50;;;;;5.65;96.98;101856.28;6316182;22;11526;-71
2022/02/10 21:02:14;;;;;;;;;34.75;34.25;;;;;5.50;98.23;101868.84;6316417;22;11500;-72
2022/02/10 21:04:54;;;;;;;;;36.75;35.50;;;;;5.59;98.29;101874.66;6316122;22;11636;-71
2022/02/10 21:08:03;;;;;;;;;25.25;24.50;;;;;5.52;98.51;101865.84;6306953;22;11559;-72
2022/02/10 21:11:01;;;;;;;;;33.50;33.50;;;;;5.58;97.79;101876.56;6306363;22;11490;-72
2022/02/10 21:13:36;;;;;;;;;42.75;39.00;;;;;5.72;97.54;101867.84;6315973;22;11486;-72
2022/02/10 21:16:32;;;;;;;;;40.75;39.00;;;;;5.74;97.49;101868.38;6306682;22;12146;-72
2022/02/10 21:19:28;;;;;;;;;37.75;35.00;;;;;5.66;97.38;101866.16;6323829;22;11521;-72
2022/02/10 21:22:23;;;;;;;;;35.50;34.25;;;;;5.72;97.41;101865.09;6306250;22;11499;-72
2022/02/10 21:25:24;;;;;;;;;38.75;36.00;;;;;5.80;97.16;101867.31;6306441;22;11580;-72
2022/02/10 21:28:26;;;;;;;;;38.00;36.75;;;;;5.66;97.51;101867.00;6306833;22;11520;-72
2022/02/10 21:31:22;;;;;;;;;42.00;39.00;;;;;5.69;97.88;101876.63;6306380;22;11542;-72
2022/02/10 21:34:22;;;;;;;;;45.75;39.00;;;;;5.71;97.37;101868.94;6307544;22;11528;-72
2022/02/10 21:37:21;;;;;;;;;38.50;35.50;;;;;5.72;97.37;101867.84;6304576;22;11542;-72
2022/02/10 21:44:23;;;;;;;;;39.00;38.25;;;;;5.76;97.67;101867.03;6315828;22;11538;-72
2022/02/10 22:18:51;;;;;;;;;53.75;46.00;;;;;5.64;98.92;101851.91;6315832;22;11520;-73
2022/02/10 22:21:51;;;;;;;;;48.50;44.50;;;;;5.67;98.44;101851.34;6306414;22;11582;-73
2022/02/10 22:24:47;;;;;;;;;52.00;44.75;;;;;5.76;97.69;101855.25;6307997;22;12404;-73
2022/02/10 22:27:46;;;;;;;;;55.50;45.00;;;;;5.76;98.16;101850.56;6308530;22;11518;-72
2022/02/10 22:30:50;;;;;;;;;53.50;46.75;;;;;5.80;97.82;101851.66;6308232;22;11514;-72
2022/02/10 22:34:16;;;;;;;;;56.75;48.50;;;;;5.84;98.02;101851.97;6307922;22;11525;-71
2022/02/10 22:37:07;;;;;;;;;48.25;42.50;;;;;5.77;98.26;101849.47;6308289;22;12338;-73
2022/02/10 22:40:10;;;;;;;;;56.75;48.00;;;;;5.58;99.15;101848.31;6308070;22;12358;-72
2022/02/10 22:42:53;;;;;;;;;43.25;40.00;;;;;5.60;99.67;101846.13;6317536;22;11588;-73
2022/02/10 22:45:34;;;;;;;;;50.25;46.00;;;;;5.58;99.69;101848.31;6308922;22;11536;-72
2022/02/10 22:48:30;;;;;;;;;44.00;41.00;;;;;5.62;99.74;101838.44;6308286;22;11539;-73
2022/02/10 22:51:27;;;;;;;;;55.25;48.25;;;;;5.57;99.96;101843.91;6308063;22;11528;-72
2022/02/10 22:54:23;;;;;;;;;53.75;46.50;;;;;5.59;100.00;101844.47;6308111;22;11590;-72
2022/02/10 22:57:19;;;;;;;;;49.00;44.75;;;;;5.55;100.00;101846.09;6308234;22;11522;-72
2022/02/10 23:00:05;;;;;;;;;54.50;46.00;;;;;5.52;100.00;101841.13;6312004;22;11507;-72
2022/02/10 23:03:01;;;;;;;;;56.00;48.75;;;;;5.52;100.00;101839.25;6307874;22;11518;-73
2022/02/10 23:05:57;;;;;;;;;55.25;46.75;;;;;5.52;100.00;101849.38;6307651;22;11512;-73
2022/02/10 23:08:53;;;;;;;;;49.50;44.00;;;;;5.44;100.00;101842.47;6307775;22;11623;-72
2022/02/10 23:11:49;;;;;;;;;45.50;42.00;;;;;5.47;100.00;101838.41;6308091;22;11581;-72
2022/02/10 23:14:44;;;;;;;;;46.00;41.75;;;;;5.43;100.00;101842.75;6307718;22;12264;-72
2022/02/10 23:17:40;;;;;;;;;49.75;43.00;;;;;5.50;100.00;101837.84;6307731;22;12250;-72
2022/02/10 23:20:37;;;;;;;;;44.00;39.50;;;;;5.48;100.00;101840.88;6324165;22;12266;-72
2022/02/10 23:23:34;;;;;;;;;50.25;43.75;;;;;5.51;100.00;101854.03;6305556;22;11546;-72
2022/02/10 23:26:29;;;;;;;;;47.75;42.25;;;;;5.57;100.00;101849.41;6307591;22;11557;-71
2022/02/10 23:29:25;;;;;;;;;46.25;43.00;;;;;5.58;100.00;101854.63;6307522;22;11499;-72
2022/02/10 23:32:21;;;;;;;;;42.25;37.00;;;;;5.59;100.00;101849.94;6307761;22;12288;-72
2022/02/10 23:34:59;;;;;;;;;43.75;41.00;;;;;5.58;100.00;101849.13;6314789;22;11516;-72
2022/02/10 23:37:55;;;;;;;;;49.00;42.50;;;;;5.55;100.00;101849.69;6308015;22;11530;-72
2022/02/10 23:40:38;;;;;;;;;55.50;47.25;;;;;5.56;100.00;101845.84;6316978;22;11639;-71
2022/02/10 23:43:34;;;;;;;;;51.50;46.50;;;;;5.63;100.00;101847.50;6307590;22;11586;-72
2022/02/10 23:46:02;;;;;;;;;39.25;38.75;;;;;5.70;100.00;101837.91;6316910;22;11575;-72
2022/02/10 23:48:31;;;;;;;;;45.75;42.25;;;;;5.67;100.00;101848.59;6317382;22;11512;-72
2022/02/10 23:51:00;;;;;;;;;47.25;39.75;;;;;5.74;99.37;101846.44;6307628;22;11512;-71
2022/02/10 23:53:56;;;;;;;;;39.00;37.50;;;;;5.74;99.20;101832.69;6307524;22;12253;-71
